Time;durP1;ratioP1;P1;durP2;ratioP2;P2;SDS_P1;SDS_P2;PMS_P1;PMS_P2;Temp;Humidity;BMP_temperature;BMP_pressure;BME280_temperature;BME280_humidity;BME280_pressure;Samples;Min_cycle;Max_cycle;Signal;HPM_P1;HPM_P2
2020/12/24 00:00:52;;;;;;;22.40;12.68;;;;;;;3.67;73.25;99432.98;1789074;80;21467;-36
2020/12/24 00:03:20;;;;;;;23.83;11.85;;;;;;;3.72;73.10;99431.50;1788997;80;21156;-36
2020/12/24 00:05:48;;;;;;;31.62;11.85;;;;;;;3.81;72.87;99434.99;1789051;80;21662;-36
2020/12/24 00:08:16;;;;;;;26.60;12.30;;;;;;;3.78;72.76;99434.25;1788924;80;21189;-36
2020/12/24 00:10:45;;;;;;;38.65;12.20;;;;;;;3.72;72.83;99432.05;1789085;80;21367;-36
2020/12/24 00:13:13;;;;;;;43.45;12.58;;;;;;;3.65;73.03;99425.80;1788917;80;21679;-36
2020/12/24 00:15:42;;;;;;;44.55;12.82;;;;;;;3.62;73.09;99433.13;1789057;80;21114;-36
2020/12/24 00:18:12;;;;;;;23.20;12.68;;;;;;;3.58;73.14;99431.39;1756383;81;21044;-36
2020/12/24 00:20:40;;;;;;;28.80;12.28;;;;;;;3.60;73.23;99439.34;1757869;81;21170;-36
2020/12/24 00:23:08;;;;;;;28.12;12.43;;;;;;;3.70;73.01;99441.73;1788941;80;21637;-36
2020/12/24 00:25:37;;;;;;;28.10;11.40;;;;;;;3.72;72.97;99444.91;1757808;81;20997;-36
2020/12/24 00:28:07;;;;;;;29.57;11.70;;;;;;;3.71;72.98;99447.34;1788961;80;21126;-36
2020/12/24 00:30:40;;;;;;;34.88;12.05;;;;;;;3.69;73.00;99445.52;1757781;81;21983;-36
2020/12/24 00:33:06;;;;;;;43.87;13.08;;;;;;;3.64;73.02;99440.30;1788988;80;21118;-36
2020/12/24 00:35:35;;;;;;;56.48;12.15;;;;;;;3.59;72.99;99445.01;1757877;81;22214;-36
2020/12/24 00:38:03;;;;;;;17.85;12.43;;;;;;;3.50;73.21;99453.02;1788826;80;20999;-36
2020/12/24 00:40:31;;;;;;;19.27;11.73;;;;;;;3.49;73.19;99440.72;1757812;81;21186;-36
2020/12/24 00:43:00;;;;;;;34.92;11.38;;;;;;;3.55;73.17;99433.33;1789279;78;21101;-36
2020/12/24 00:45:28;;;;;;;31.87;11.95;;;;;;;3.57;73.19;99444.00;1789165;80;21619;-36
2020/12/24 00:47:56;;;;;;;41.60;12.37;;;;;;;3.52;73.27;99450.05;1789011;80;21372;-36
2020/12/24 00:50:25;;;;;;;37.35;13.78;;;;;;;3.47;73.41;99447.75;1788905;80;21144;-36
2020/12/24 00:52:53;;;;;;;45.52;12.95;;;;;;;3.46;73.48;99450.19;1788942;80;21017;-36
2020/12/24 00:55:23;;;;;;;24.92;9.60;;;;;;;3.43;73.46;99456.72;1789379;80;21187;-36
2020/12/24 00:57:51;;;;;;;20.35;12.45;;;;;;;3.41;73.69;99454.89;1789003;80;21103;-36
2020/12/24 01:00:20;;;;;;;28.45;12.40;;;;;;;3.46;73.56;99450.73;1789008;80;21194;-36
2020/12/24 01:02:48;;;;;;;27.27;12.37;;;;;;;3.54;73.31;99459.34;1788930;80;21021;-36
2020/12/24 01:05:17;;;;;;;33.92;13.35;;;;;;;3.58;73.32;99456.30;1788876;80;21163;-36
2020/12/24 01:07:45;;;;;;;33.92;12.78;;;;;;;3.58;73.22;99456.30;1789013;80;21124;-36
2020/12/24 01:10:14;;;;;;;34.35;13.70;;;;;;;3.60;73.34;99456.77;1788994;80;21208;-36
2020/12/24 01:12:43;;;;;;;42.50;14.00;;;;;;;3.64;73.21;99451.56;1789189;80;21202;-36
2020/12/24 01:15:11;;;;;;;38.02;14.18;;;;;;;3.64;73.15;99451.56;1788905;78;21197;-36
2020/12/24 01:17:39;;;;;;;23.32;14.15;;;;;;;3.63;73.03;99451.35;1789023;80;21122;-36
2020/12/24 01:20:08;;;;;;;29.77;13.72;;;;;;;3.64;73.05;99452.91;1788914;80;21320;-36
2020/12/24 01:22:38;;;;;;;29.42;13.70;;;;;;;3.72;72.83;99448.14;1789009;80;21592;-36
2020/12/24 01:25:06;;;;;;;;;;;;;;;3.71;72.90;99443.88;1791745;80;21201;-36
2020/12/24 01:27:35;;;;;;;39.67;14.07;;;;;;;3.72;72.89;99438.20;1751685;81;20225;-36
2020/12/24 01:30:04;;;;;;;38.58;14.33;;;;;;;3.63;73.06;99437.37;1788955;80;21158;-36
2020/12/24 01:32:33;;;;;;;30.82;10.40;;;;;;;3.63;73.03;99437.37;1789188;80;21157;-36
2020/12/24 01:35:01;;;;;;;25.37;13.08;;;;;;;3.63;72.93;99442.73;1788897;80;21169;-36
2020/12/24 01:37:30;;;;;;;23.75;13.00;;;;;;;3.64;72.82;99446.20;1788935;80;21331;-36
2020/12/24 01:39:59;;;;;;;27.13;13.22;;;;;;;3.72;72.70;99445.45;1789022;80;21163;-36
2020/12/24 01:42:28;;;;;;;28.65;13.60;;;;;;;3.77;72.75;99443.42;1788987;80;21114;-36
2020/12/24 01:44:57;;;;;;;35.33;12.63;;;;;;;3.77;72.62;99446.66;1788975;80;21177;-36
2020/12/24 01:47:26;;;;;;;42.75;12.90;;;;;;;3.75;72.63;99438.13;1788968;80;21144;-36
2020/12/24 01:49:54;;;;;;;38.08;13.10;;;;;;;3.74;72.63;99428.49;1788940;80;21483;-36
2020/12/24 01:52:38;;;;;;;43.20;13.05;;;;;;;3.71;72.59;99431.26;1788942;80;21181;-36
2020/12/24 01:55:09;;;;;;;21.48;12.78;;;;;;;3.65;72.58;99431.70;1788955;80;21019;-36
2020/12/24 01:57:38;;;;;;;20.17;12.35;;;;;;;3.63;72.61;99426.64;1789094;80;21137;-36
2020/12/24 02:00:08;;;;;;;21.50;12.80;;;;;;;3.69;72.67;99426.75;1789096;80;21158;-36
2020/12/24 02:02:40;;;;;;;21.93;12.47;;;;;;;3.72;72.74;99424.02;1788998;80;21384;-36
2020/12/24 02:05:08;;;;;;;34.85;12.58;;;;;;;3.73;72.56;99423.67;1788857;80;21154;-36
2020/12/24 02:07:37;;;;;;;27.42;12.65;;;;;;;3.72;72.69;99418.65;1788866;80;21145;-36
2020/12/24 02:10:06;;;;;;;35.68;12.10;;;;;;;3.71;72.71;99418.41;1788885;80;21189;-36
2020/12/24 02:12:37;;;;;;;30.45;12.37;;;;;;;3.73;72.71;99416.18;1788963;80;21146;-36
2020/12/24 02:15:05;;;;;;;22.52;12.47;;;;;;;3.72;72.63;99425.34;1756518;80;21200;-36
2020/12/24 02:17:33;;;;;;;20.62;11.50;;;;;;;3.75;72.50;99418.80;1785876;80;21015;-36
2020/12/24 02:20:02;;;;;;;17.02;11.35;;;;;;;3.83;72.36;99416.68;1785829;80;21154;-36
2020/12/24 02:22:30;;;;;;;26.27;11.93;;;;;;;3.88;72.36;99415.73;1785814;80;21186;-36
2020/12/24 02:24:59;;;;;;;21.97;11.80;;;;;;;3.87;72.25;99414.95;1785865;80;21119;-36
2020/12/24 02:27:27;;;;;;;17.85;11.10;;;;;;;3.86;72.30;99418.75;1785726;80;21273;-36
2020/12/24 02:29:58;;;;;;;19.42;11.55;;;;;;;3.87;72.31;99416.87;1785834;80;21134;-36
2020/12/24 02:32:26;;;;;;;21.60;11.57;;;;;;;3.82;72.16;99419.15;1786044;80;21003;-36
2020/12/24 02:34:55;;;;;;;21.07;11.63;;;;;;;3.74;72.35;99419.90;1773705;79;21182;-36
2020/12/24 02:37:24;;;;;;;17.37;12.15;;;;;;;3.75;72.26;99421.48;1764639;81;21553;-36
2020/12/24 02:39:52;;;;;;;21.10;10.88;;;;;;;3.74;72.25;99411.06;1769086;81;21220;-36
2020/12/24 02:42:20;;;;;;;18.73;11.20;;;;;;;3.74;72.45;99408.38;1768986;81;21197;-36
2020/12/24 02:44:49;;;;;;;27.73;11.60;;;;;;;3.74;72.57;99417.22;1769059;81;21114;-36
2020/12/24 02:47:17;;;;;;;28.75;10.72;;;;;;;3.73;72.46;99414.30;1769095;81;21122;-36
2020/12/24 02:49:47;;;;;;;;;;;;;;;3.68;72.56;99423.82;1769745;81;21126;-36
2020/12/24 02:52:15;;;;;;;21.12;11.22;;;;;;;3.64;72.66;99424.21;1769020;81;21479;-36
2020/12/24 02:54:44;;;;;;;17.37;11.90;;;;;;;3.53;73.07;99415.45;1769059;81;21134;-36
2020/12/24 02:57:12;;;;;;;21.57;10.63;;;;;;;3.63;73.01;99414.58;1769138;81;21141;-36
2020/12/24 02:59:41;;;;;;;20.62;11.25;;;;;;;3.74;72.74;99418.56;1769049;81;21166;-36
2020/12/24 03:02:09;;;;;;;20.52;11.97;;;;;;;3.77;72.70;99419.84;1769087;81;21122;-36
2020/12/24 03:04:38;;;;;;;28.45;10.80;;;;;;;3.78;72.68;99420.05;1769047;81;21381;-36
2020/12/24 03:07:06;;;;;;;19.30;11.15;;;;;;;3.78;72.68;99416.03;1768918;81;21051;-36
2020/12/24 03:09:35;;;;;;;25.20;12.63;;;;;;;3.77;72.61;99416.61;1769386;81;21113;-36
2020/12/24 03:12:05;;;;;;;32.67;11.90;;;;;;;3.79;72.62;99411.71;1768942;81;21067;-36
2020/12/24 03:14:34;;;;;;;22.75;11.90;;;;;;;3.80;72.57;99397.75;1769602;80;21601;-36
2020/12/24 03:17:02;;;;;;;17.00;11.97;;;;;;;3.86;72.39;99397.30;1769651;81;21264;-36
2020/12/24 03:19:31;;;;;;;23.27;11.70;;;;;;;3.89;72.06;99396.66;1769511;81;21181;-36
2020/12/24 03:21:59;;;;;;;29.20;11.97;;;;;;;3.85;72.20;99403.76;1769500;81;21100;-36
2020/12/24 03:24:27;;;;;;;24.98;12.50;;;;;;;3.86;72.35;99411.26;1769579;81;21133;-36
2020/12/24 03:26:56;;;;;;;20.12;12.33;;;;;;;3.87;72.30;99400.20;1768080;81;21133;-36
2020/12/24 03:29:24;;;;;;;40.73;12.55;;;;;;;3.89;72.32;99391.84;1758832;81;21311;-36
2020/12/24 03:31:52;;;;;;;47.90;12.58;;;;;;;3.82;72.16;99383.49;1758737;81;21185;-36
2020/12/24 03:34:21;;;;;;;20.25;11.97;;;;;;;3.80;72.12;99391.84;1758700;81;21162;-36
2020/12/24 03:36:49;;;;;;;23.75;11.78;;;;;;;3.74;72.17;99397.11;1758712;81;21126;-36
2020/12/24 03:41:16;;;;;;;25.20;11.10;;;;;;;3.76;72.37;99377.48;1808356;78;22772;-36
2020/12/24 03:43:45;;;;;;;39.08;11.50;;;;;;;3.63;72.70;99382.99;1784115;80;21034;-36
2020/12/24 03:46:13;;;;;;;30.30;11.53;;;;;;;3.62;72.72;99382.20;1749302;82;21191;-36
2020/12/24 03:48:41;;;;;;;31.90;11.95;;;;;;;3.59;72.88;99384.70;1749192;82;20964;-36
2020/12/24 03:51:09;;;;;;;31.45;12.23;;;;;;;3.55;72.93;99380.52;1749245;82;21301;-36
2020/12/24 03:53:38;;;;;;;17.90;11.80;;;;;;;3.54;73.11;99374.11;1749351;82;21308;-36
2020/12/24 03:56:06;;;;;;;18.62;11.97;;;;;;;3.62;72.93;99370.14;1749236;82;21036;-36
2020/12/24 03:58:35;;;;;;;22.32;11.45;;;;;;;3.71;72.87;99362.89;1749260;82;21739;-36
2020/12/24 04:01:03;;;;;;;21.77;11.78;;;;;;;3.79;72.75;99359.42;1749162;82;21005;-36
2020/12/24 04:03:32;;;;;;;38.85;11.57;;;;;;;3.81;72.61;99354.55;1749221;82;21054;-36
2020/12/24 04:06:00;;;;;;;30.95;10.88;;;;;;;3.84;72.46;99357.93;1749302;82;21202;-36
2020/12/24 04:08:29;;;;;;;26.95;11.35;;;;;;;3.83;72.39;99356.89;1749267;82;21205;-36
2020/12/24 04:10:58;;;;;;;30.08;11.45;;;;;;;3.79;72.42;99355.95;1749138;82;21287;-36
2020/12/24 04:13:26;;;;;;;17.05;10.15;;;;;;;3.76;72.35;99356.04;1749099;82;21141;-36
2020/12/24 04:15:54;;;;;;;20.05;10.10;;;;;;;3.80;72.29;99355.64;1780174;80;21162;-36
2020/12/24 04:18:23;;;;;;;20.52;9.88;;;;;;;3.87;72.13;99357.87;1780094;80;21147;-36
2020/12/24 04:20:52;;;;;;;;;;;;;;;3.86;72.07;99356.28;1749114;82;21171;-36
2020/12/24 04:23:20;;;;;;;29.55;9.98;;;;;;;3.83;72.19;99356.34;1747829;82;22084;-36
2020/12/24 04:25:49;;;;;;;44.73;10.58;;;;;;;3.70;72.41;99351.92;1747632;82;21174;-36
2020/12/24 04:28:18;;;;;;;37.93;11.60;;;;;;;3.68;72.38;99354.70;1780065;80;21162;-36
2020/12/24 04:30:46;;;;;;;56.02;11.63;;;;;;;3.65;72.48;99352.08;1747582;82;21182;-36
2020/12/24 04:33:15;;;;;;;18.00;11.57;;;;;;;3.62;72.46;99352.71;1780189;80;21135;-36
2020/12/24 04:35:43;;;;;;;24.50;11.45;;;;;;;3.60;72.56;99355.45;1747738;82;21252;-36
2020/12/24 04:38:12;;;;;;;24.27;10.38;;;;;;;3.61;72.51;99352.47;1780303;80;21189;-36
2020/12/24 04:40:41;;;;;;;39.35;11.43;;;;;;;3.59;72.68;99347.16;1724399;82;21187;-36
2020/12/24 04:43:09;;;;;;;24.90;10.82;;;;;;;3.50;72.80;99329.73;1775173;80;21016;-36
2020/12/24 04:45:38;;;;;;;66.50;11.20;;;;;;;3.56;72.94;99352.61;1775214;80;21138;-36
2020/12/24 04:48:09;;;;;;;59.30;12.30;;;;;;;3.53;72.87;99358.61;1775292;80;21371;-36
2020/12/24 04:50:39;;;;;;;18.87;11.20;;;;;;;3.35;73.03;99352.41;1775196;80;21169;-36
2020/12/24 04:53:07;;;;;;;19.30;9.85;;;;;;;3.42;73.20;99360.00;1774799;80;21747;-36
2020/12/24 04:55:37;;;;;;;29.30;9.95;;;;;;;3.49;73.23;99363.78;1774973;80;21570;-36
2020/12/24 04:58:05;;;;;;;35.20;10.20;;;;;;;3.50;73.16;99358.67;1774633;80;21198;-36
2020/12/24 05:00:35;;;;;;;41.23;10.63;;;;;;;3.49;73.30;99356.30;1774838;80;22622;-36
2020/12/24 05:03:11;;;;;;;55.10;11.68;;;;;;;3.47;73.32;99357.17;1774605;80;21586;-36
2020/12/24 05:05:39;;;;;;;54.77;10.45;;;;;;;3.43;73.32;99361.03;1774707;80;21138;-36
2020/12/24 05:08:08;;;;;;;26.17;11.05;;;;;;;3.38;73.53;99358.50;1774506;80;21150;-36
2020/12/24 05:10:37;;;;;;;23.50;10.60;;;;;;;3.44;73.44;99363.14;1774718;80;21614;-36
2020/12/24 05:13:19;;;;;;;21.93;11.30;;;;;;;3.50;73.22;99361.90;1774856;80;21167;-36
2020/12/24 05:15:47;;;;;;;23.95;10.20;;;;;;;3.45;73.28;99354.00;1774591;80;21139;-36
2020/12/24 05:18:18;;;;;;;36.60;11.05;;;;;;;3.41;73.48;99357.08;1770125;80;21028;-36
2020/12/24 05:20:47;;;;;;;55.33;10.45;;;;;;;3.38;73.49;99352.34;1774577;80;21128;-36
2020/12/24 05:23:17;;;;;;;34.00;10.53;;;;;;;3.34;73.64;99356.76;1774627;80;21162;-36
2020/12/24 05:25:46;;;;;;;18.70;11.22;;;;;;;3.29;73.71;99359.58;1774841;80;22318;-36
2020/12/24 05:28:23;;;;;;;17.05;10.58;;;;;;;3.32;73.66;99358.95;1774676;80;21582;-36
2020/12/24 05:30:53;;;;;;;26.35;10.50;;;;;;;3.37;73.58;99356.13;1774691;80;21115;-36
2020/12/24 05:33:28;;;;;;;;;;;;;;;3.41;73.57;99361.89;1777389;80;21167;-36
2020/12/24 05:36:22;;;;;;;29.60;10.20;;;;;;;3.42;73.66;99373.40;1774146;80;20563;-36
2020/12/24 05:38:51;;;;;;;58.17;10.70;;;;;;;3.30;73.98;99367.83;1774649;80;21382;-36
2020/12/24 05:41:33;;;;;;;47.00;10.27;;;;;;;3.31;73.99;99355.47;1740513;82;21048;-36
2020/12/24 05:44:12;;;;;;;17.42;9.93;;;;;;;3.32;73.96;99345.55;1815570;79;21142;-36
2020/12/24 05:46:49;;;;;;;17.57;9.83;;;;;;;3.38;73.80;99338.41;1815799;79;21051;-36
2020/12/24 05:49:22;;;;;;;24.80;9.73;;;;;;;3.47;73.60;99333.05;1815556;79;21606;-36
2020/12/24 05:51:53;;;;;;;25.37;9.20;;;;;;;3.51;73.60;99340.70;1809055;79;22272;-36
2020/12/24 05:54:21;;;;;;;35.15;9.60;;;;;;;3.54;73.61;99343.30;1815644;79;21130;-36
2020/12/24 05:56:50;;;;;;;30.40;9.65;;;;;;;3.54;73.48;99333.36;1815535;79;21113;-36
2020/12/24 05:59:24;;;;;;;47.62;8.60;;;;;;;3.53;73.41;99333.70;1815513;79;21189;-36
2020/12/24 06:02:17;;;;;;;11.35;8.15;;;;;;;3.48;73.45;99334.64;1815454;79;21174;-36
2020/12/24 06:04:49;;;;;;;17.30;8.13;;;;;;;3.51;73.39;99335.34;1815631;79;22118;-36
2020/12/24 06:07:30;;;;;;;17.75;7.97;;;;;;;3.58;73.23;99335.69;1815530;79;21008;-36
2020/12/24 06:10:08;;;;;;;18.85;7.80;;;;;;;3.60;73.34;99340.16;1815527;79;21160;-36
2020/12/24 06:12:52;;;;;;;23.65;7.42;;;;;;;3.60;73.36;99330.78;1815536;79;21024;-36
2020/12/24 06:15:20;;;;;;;15.68;6.97;;;;;;;3.59;73.23;99327.85;1815588;79;21158;-36
2020/12/24 06:17:48;;;;;;;13.58;6.55;;;;;;;3.52;73.34;99315.48;1815444;79;21271;-36
2020/12/24 06:20:19;;;;;;;8.98;6.28;;;;;;;3.50;73.41;99317.67;1815393;79;20999;-36
2020/12/24 06:22:47;;;;;;;7.40;6.15;;;;;;;3.54;73.32;99313.81;1815704;79;21577;-36
2020/12/24 06:25:17;;;;;;;;;;;;;;;3.57;73.22;99311.86;1818122;79;21170;-36
2020/12/24 06:27:52;;;;;;;10.43;6.05;;;;;;;3.55;73.30;99317.53;1815552;78;20231;-36
2020/12/24 06:30:26;;;;;;;8.10;4.55;;;;;;;3.39;73.70;99319.86;1815536;79;21431;-36
2020/12/24 06:32:56;;;;;;;11.73;5.22;;;;;;;3.38;73.95;99326.89;1815364;79;21166;-36
2020/12/24 06:35:41;;;;;;;9.35;6.28;;;;;;;3.32;74.06;99314.73;1815538;79;21198;-36
2020/12/24 06:40:48;;;;;;;7.12;4.47;;;;;;;3.32;74.36;99304.02;1809658;78;22768;-36
2020/12/24 06:43:16;;;;;;;9.23;4.20;;;;;;;3.27;74.41;99309.52;1784129;80;21007;-36
2020/12/24 06:45:44;;;;;;;6.45;4.65;;;;;;;3.22;74.67;99303.77;1784085;80;21387;-36
2020/12/24 06:48:24;;;;;;;8.03;4.15;;;;;;;3.17;74.79;99304.45;1784081;80;21015;-36
2020/12/24 06:51:02;;;;;;;6.53;4.45;;;;;;;3.11;74.85;99305.69;1784195;80;20991;-36
2020/12/24 06:53:36;;;;;;;6.60;4.85;;;;;;;3.01;75.10;99295.51;1784407;80;21007;-36
2020/12/24 06:56:16;;;;;;;6.78;5.08;;;;;;;3.00;75.14;99299.28;1793916;79;20953;-36
2020/12/24 06:59:00;;;;;;;11.43;5.08;;;;;;;3.03;75.06;99295.20;1794349;79;21505;-36
2020/12/24 07:01:35;;;;;;;8.50;5.35;;;;;;;3.02;75.20;99293.08;1797391;79;20988;-36
2020/12/24 07:04:08;;;;;;;13.45;6.05;;;;;;;3.01;75.20;99292.04;1797495;79;20989;-36
2020/12/24 07:06:50;;;;;;;9.55;5.50;;;;;;;2.99;75.20;99287.02;1767255;79;21040;-36
2020/12/24 07:09:26;;;;;;;8.73;5.80;;;;;;;2.92;75.29;99285.33;1797531;79;21151;-36
2020/12/24 07:11:55;;;;;;;6.17;4.70;;;;;;;2.93;75.22;99293.61;1797535;79;21354;-36
2020/12/24 07:14:30;;;;;;;7.97;5.37;;;;;;;2.90;75.22;99292.89;1806661;79;21120;-36
2020/12/24 07:17:16;;;;;;;8.00;5.75;;;;;;;2.82;75.45;99292.30;1816247;79;21003;-36
2020/12/24 07:19:46;;;;;;;7.60;5.28;;;;;;;2.75;75.59;99295.98;1787739;79;21059;-36
2020/12/24 07:22:18;;;;;;;7.78;5.42;;;;;;;2.66;75.84;99291.15;1816234;79;21177;-36
2020/12/24 07:24:50;;;;;;;7.95;5.42;;;;;;;2.67;75.86;99291.91;1816260;79;21201;-36
2020/12/24 07:27:18;;;;;;;10.53;5.37;;;;;;;2.73;75.78;99288.80;1815769;79;21613;-36
2020/12/24 07:29:47;;;;;;;12.93;5.10;;;;;;;2.71;75.84;99294.23;1816154;79;21126;-36
2020/12/24 07:32:16;;;;;;;18.77;5.95;;;;;;;2.58;76.12;99297.23;1816377;79;21138;-36
2020/12/24 07:34:45;;;;;;;8.55;5.12;;;;;;;2.43;76.55;99298.42;1816199;78;21134;-36
2020/12/24 07:37:13;;;;;;;6.58;4.85;;;;;;;2.34;76.90;99304.82;1783202;79;21376;-36
2020/12/24 07:39:52;;;;;;;8.13;5.33;;;;;;;2.32;77.09;99305.15;1811515;79;21115;-36
2020/12/24 07:42:24;;;;;;;8.60;4.87;;;;;;;2.31;77.04;99314.26;1805312;79;20992;-36
2020/12/24 07:44:54;;;;;;;7.90;5.40;;;;;;;2.21;77.17;99300.34;1805034;79;21118;-36
2020/12/24 07:47:24;;;;;;;9.60;6.28;;;;;;;2.11;77.45;99307.53;1805468;79;21135;-36
2020/12/24 07:49:52;;;;;;;12.28;5.50;;;;;;;2.10;77.62;99305.94;1805306;79;22332;-36
2020/12/24 07:52:20;;;;;;;8.18;5.97;;;;;;;2.15;77.59;99313.84;1804446;79;21185;-37
2020/12/24 07:54:49;;;;;;;10.03;7.37;;;;;;;2.17;77.68;99306.86;1804559;79;21155;-36
2020/12/24 07:57:22;;;;;;;14.40;7.85;;;;;;;2.16;77.73;99307.41;1804480;79;21173;-36
2020/12/24 08:00:01;;;;;;;10.93;7.37;;;;;;;2.15;77.81;99316.52;1804486;79;21187;-36
2020/12/24 08:02:31;;;;;;;12.25;8.05;;;;;;;2.20;77.73;99319.61;1804531;79;21373;-36
2020/12/24 08:05:00;;;;;;;16.50;8.20;;;;;;;2.26;77.49;99317.61;1804385;79;21139;-36
2020/12/24 08:07:28;;;;;;;13.58;9.15;;;;;;;2.21;77.49;99320.41;1804533;79;20953;-36
2020/12/24 08:10:10;;;;;;;16.15;9.25;;;;;;;2.11;77.66;99318.22;1804516;79;21028;-36
2020/12/24 08:12:39;;;;;;;13.50;9.05;;;;;;;2.03;77.88;99313.58;1804530;79;21087;-36
2020/12/24 08:15:15;;;;;;;13.50;8.85;;;;;;;2.05;78.03;99306.60;1811272;79;22106;-36
2020/12/24 08:17:56;;;;;;;16.25;9.50;;;;;;;2.09;77.88;99302.22;1813078;79;20996;-36
2020/12/24 08:20:54;;;;;;;17.12;10.45;;;;;;;2.08;77.86;99305.44;1812932;79;21145;-36
2020/12/24 08:23:52;;;;;;;17.30;9.75;;;;;;;2.05;78.12;99295.91;1811929;79;21162;-36
2020/12/24 08:26:21;;;;;;;15.03;9.38;;;;;;;2.06;78.26;99304.97;1812910;79;21146;-36
2020/12/24 08:28:57;;;;;;;15.60;9.93;;;;;;;2.09;78.14;99304.35;1813128;79;21196;-36
2020/12/24 08:31:27;;;;;;;17.07;10.68;;;;;;;2.17;77.77;99298.83;1813112;79;21617;-36
2020/12/24 08:33:55;;;;;;;18.05;10.93;;;;;;;2.17;77.79;99294.82;1813106;79;21154;-36
2020/12/24 08:36:26;;;;;;;16.02;10.53;;;;;;;2.13;77.83;99295.95;1813023;79;21110;-36
2020/12/24 08:39:06;;;;;;;13.08;9.08;;;;;;;2.09;77.82;99294.99;1813063;79;21150;-36
2020/12/24 08:41:46;;;;;;;13.03;8.43;;;;;;;2.09;77.73;99286.97;1809552;79;21727;-36
2020/12/24 08:44:17;;;;;;;;;;;;;;;2.15;77.67;99275.06;1815682;79;21146;-36
2020/12/24 08:47:10;;;;;;;16.97;8.93;;;;;;;2.19;77.72;99269.34;1801666;79;20149;-36
2020/12/24 08:49:41;;;;;;;13.88;9.00;;;;;;;2.14;77.87;99269.47;1758622;81;21124;-36
2020/12/24 08:52:22;;;;;;;11.12;7.90;;;;;;;2.16;77.92;99255.25;1737710;82;21167;-36
2020/12/24 08:55:08;;;;;;;10.90;7.35;;;;;;;2.21;77.82;99250.32;1796517;79;23492;-36
2020/12/24 08:57:40;;;;;;;10.70;7.40;;;;;;;2.36;77.62;99255.28;1796525;79;21167;-36
2020/12/24 09:00:10;;;;;;;15.70;7.45;;;;;;;2.39;77.50;99250.64;1796546;79;21115;-36
2020/12/24 09:02:39;;;;;;;12.47;7.95;;;;;;;2.43;77.44;99246.80;1758478;81;21159;-36
2020/12/24 09:05:07;;;;;;;9.05;6.22;;;;;;;2.46;77.41;99242.98;1737547;82;21132;-36
2020/12/24 09:07:44;;;;;;;10.88;6.00;;;;;;;2.55;77.28;99247.81;1796505;79;21143;-36
2020/12/24 09:10:26;;;;;;;9.50;5.97;;;;;;;2.63;76.92;99240.35;1758484;80;21029;-36
2020/12/24 09:13:03;;;;;;;12.80;7.20;;;;;;;2.59;76.97;99238.06;1737712;82;21610;-36
2020/12/24 09:15:32;;;;;;;10.10;6.95;;;;;;;2.55;77.26;99241.12;1773562;79;21139;-36
2020/12/24 09:18:00;;;;;;;10.45;5.70;;;;;;;2.55;77.26;99230.96;1772627;81;21172;-36
2020/12/24 09:20:31;;;;;;;8.03;5.95;;;;;;;2.56;77.26;99229.88;1749181;81;21320;-36
2020/12/24 09:23:00;;;;;;;;;;;;;;;2.67;77.03;99224.45;1775163;80;21154;-36
2020/12/24 09:25:46;;;;;;;7.17;5.17;;;;;;;2.67;77.05;99219.10;1772901;81;20567;-36
2020/12/24 09:28:23;;;;;;;12.98;6.22;;;;;;;2.55;77.42;99214.91;1772523;81;21157;-36
2020/12/24 09:30:55;;;;;;;12.10;6.42;;;;;;;2.57;77.48;99201.98;1772782;81;21035;-36
2020/12/24 09:33:23;;;;;;;7.05;5.28;;;;;;;2.57;77.43;99203.33;1772546;81;23474;-36
2020/12/24 09:35:52;;;;;;;7.25;5.35;;;;;;;2.63;77.33;99197.53;1772732;81;21161;-36
2020/12/24 09:38:21;;;;;;;;;;;;;;;2.75;77.08;99188.13;1775372;80;22111;-36
2020/12/24 09:40:50;;;;;;;8.35;5.83;;;;;;;2.77;77.12;99185.36;1773029;80;20922;-36
2020/12/24 09:43:18;;;;;;;10.88;5.62;;;;;;;2.73;77.39;99180.39;1773216;80;21161;-36
2020/12/24 09:45:47;;;;;;;6.50;4.95;;;;;;;2.78;77.10;99173.55;1773179;80;21398;-36
2020/12/24 09:48:16;;;;;;;7.55;5.62;;;;;;;2.80;76.91;99170.03;1773266;80;21202;-36
2020/12/24 09:50:44;;;;;;;5.83;4.70;;;;;;;2.86;76.79;99174.66;1743084;80;21154;-36
2020/12/24 09:53:15;;;;;;;7.65;5.58;;;;;;;2.96;76.50;99166.33;1772991;80;21581;-36
2020/12/24 09:55:43;;;;;;;6.58;4.95;;;;;;;2.99;76.55;99161.16;1773299;80;21150;-36
2020/12/24 09:58:12;;;;;;;6.87;5.45;;;;;;;3.01;76.49;99154.91;1773063;80;21327;-38
2020/12/24 10:00:40;;;;;;;6.55;5.08;;;;;;;3.02;76.35;99151.14;1773149;80;21302;-36
2020/12/24 10:03:08;;;;;;;12.58;5.53;;;;;;;2.99;76.27;99146.97;1773132;80;21027;-36
2020/12/24 10:05:37;;;;;;;8.43;5.17;;;;;;;3.02;76.13;99136.96;1773142;80;21126;-36
2020/12/24 10:08:06;;;;;;;7.33;5.50;;;;;;;3.06;76.20;99136.02;1773166;80;21544;-36
2020/12/24 10:10:34;;;;;;;9.60;6.10;;;;;;;3.06;76.21;99133.34;1773244;80;21170;-36
2020/12/24 10:13:04;;;;;;;;;;;;;;;3.05;76.25;99140.34;1775669;80;21141;-36
2020/12/24 10:15:33;;;;;;;10.65;6.45;;;;;;;3.05;76.27;99129.63;1766131;79;20211;-36
2020/12/24 10:18:02;;;;;;;8.45;5.95;;;;;;;2.93;76.54;99128.93;1765475;80;21425;-36
2020/12/24 10:20:31;;;;;;;9.63;6.47;;;;;;;3.01;76.48;99126.80;1765652;81;21594;-36
2020/12/24 10:22:59;;;;;;;10.03;6.85;;;;;;;3.09;76.21;99122.56;1765495;80;21224;-36
2020/12/24 10:25:28;;;;;;;10.35;7.55;;;;;;;3.06;76.24;99121.28;1765583;81;21200;-36
2020/12/24 10:27:56;;;;;;;14.03;8.68;;;;;;;2.99;76.35;99119.65;1765528;81;21006;-36
2020/12/24 10:30:24;;;;;;;13.05;8.83;;;;;;;2.97;76.54;99125.06;1765487;80;21184;-36
2020/12/24 10:32:53;;;;;;;13.95;8.80;;;;;;;3.01;76.37;99118.77;1765503;81;21180;-36
2020/12/24 10:35:23;;;;;;;17.90;10.88;;;;;;;3.08;76.28;99114.83;1765462;81;21196;-36
2020/12/24 10:37:52;;;;;;;;;;;;;;;3.11;76.26;99107.50;1721354;83;21047;-36
2020/12/24 10:40:20;;;;;;;20.62;10.58;;;;;;;3.12;76.25;99103.72;1708127;82;20352;-36
2020/12/24 10:42:48;;;;;;;17.05;10.30;;;;;;;2.97;76.49;99097.74;1725224;83;21170;-36
2020/12/24 10:45:17;;;;;;;19.05;10.75;;;;;;;2.95;76.58;99095.92;1725224;83;21142;-36
2020/12/24 10:47:45;;;;;;;16.42;9.95;;;;;;;2.95;76.53;99091.91;1783312;80;21451;-36
2020/12/24 10:50:14;;;;;;;18.67;10.18;;;;;;;3.00;76.49;99090.41;1783262;80;21647;-36
2020/12/24 10:52:43;;;;;;;15.63;10.13;;;;;;;3.02;76.49;99078.84;1783570;80;21034;-36
2020/12/24 10:55:11;;;;;;;21.45;10.28;;;;;;;3.00;76.52;99082.38;1751207;80;21023;-36
2020/12/24 10:57:40;;;;;;;17.52;10.70;;;;;;;2.98;76.63;99081.92;1783364;80;21129;-36
2020/12/24 11:00:11;;;;;;;18.70;10.13;;;;;;;2.97;76.56;99074.98;1783314;80;21362;-36
2020/12/24 11:02:39;;;;;;;18.37;9.60;;;;;;;3.06;76.43;99075.76;1783255;80;21007;-36
2020/12/24 11:05:08;;;;;;;16.93;10.38;;;;;;;3.10;76.19;99063.85;1783254;80;21047;-36
2020/12/24 11:07:37;;;;;;;18.40;9.98;;;;;;;3.11;76.30;99061.97;1782973;80;21024;-36
2020/12/24 11:10:05;;;;;;;18.32;11.38;;;;;;;3.13;76.29;99054.41;1781571;80;21135;-36
2020/12/24 11:12:34;;;;;;;17.55;9.95;;;;;;;3.10;76.18;99046.45;1781734;80;21327;-36
2020/12/24 11:15:02;;;;;;;19.27;9.95;;;;;;;3.10;76.23;99041.09;1793144;79;21126;-36
2020/12/24 11:17:31;;;;;;;18.52;10.82;;;;;;;3.18;76.01;99050.23;1796953;79;21226;-36
2020/12/24 11:20:00;;;;;;;16.65;10.23;;;;;;;3.26;75.76;99036.02;1796928;79;21123;-36
2020/12/24 11:22:30;;;;;;;17.12;9.80;;;;;;;3.26;75.63;99041.38;1797008;79;21151;-36
2020/12/24 11:24:59;;;;;;;17.75;10.10;;;;;;;3.22;75.62;99036.43;1797065;79;21195;-36
2020/12/24 11:27:28;;;;;;;15.95;10.35;;;;;;;3.19;75.67;99035.74;1797060;79;21139;-36
2020/12/24 11:29:56;;;;;;;15.30;9.30;;;;;;;3.17;75.69;99028.02;1797188;79;21170;-36
2020/12/24 11:32:27;;;;;;;16.10;9.55;;;;;;;3.21;75.67;99029.49;1797082;79;21142;-36
2020/12/24 11:34:55;;;;;;;15.35;10.00;;;;;;;3.32;75.37;99021.36;1797352;79;21594;-36
2020/12/24 11:37:23;;;;;;;12.98;8.90;;;;;;;3.35;75.09;99019.38;1797029;79;21371;-36
2020/12/24 11:39:51;;;;;;;14.98;9.23;;;;;;;3.27;75.05;99013.50;1797017;79;21163;-36
2020/12/24 11:42:20;;;;;;;10.80;7.97;;;;;;;3.20;75.24;99009.16;1796985;79;21083;-36
2020/12/24 11:44:48;;;;;;;15.23;9.33;;;;;;;3.13;75.40;99002.98;1797024;79;21163;-36
2020/12/24 11:47:17;;;;;;;12.63;8.63;;;;;;;3.17;75.40;98999.89;1797084;79;21127;-36
2020/12/24 11:49:46;;;;;;;13.93;8.80;;;;;;;3.24;75.28;98988.70;1783499;79;21350;-36
2020/12/24 11:52:14;;;;;;;16.42;9.80;;;;;;;3.22;75.28;98981.52;1780783;80;21179;-36
2020/12/24 11:54:43;;;;;;;13.55;8.98;;;;;;;3.16;75.37;98970.73;1780907;80;21144;-36